createdAt,value
2023-02-06T00:00:53.086Z,100.00
2023-02-06T00:03:20.381Z,100.00
2023-02-06T00:05:57.703Z,100.00
2023-02-06T00:08:25.994Z,100.00
2023-02-06T00:10:53.231Z,100.00
2023-02-06T00:13:20.808Z,100.00
2023-02-06T00:15:48.138Z,100.00
2023-02-06T00:18:15.170Z,100.00
2023-02-06T00:20:42.286Z,100.00
2023-02-06T00:23:09.944Z,100.00
2023-02-06T00:25:37.441Z,100.00
2023-02-06T00:28:04.929Z,100.00
2023-02-06T00:30:32.062Z,100.00
2023-02-06T00:32:59.245Z,100.00
2023-02-06T00:35:26.658Z,100.00
2023-02-06T00:37:53.838Z,100.00
2023-02-06T00:40:20.988Z,100.00
2023-02-06T00:42:48.010Z,100.00
2023-02-06T00:45:15.152Z,100.00
2023-02-06T00:47:42.201Z,100.00
2023-02-06T00:50:10.089Z,100.00
2023-02-06T00:52:37.116Z,100.00
2023-02-06T00:55:05.618Z,100.00
2023-02-06T00:57:32.609Z,100.00
2023-02-06T00:59:59.668Z,100.00
2023-02-06T01:02:27.026Z,100.00
2023-02-06T01:04:54.033Z,100.00
2023-02-06T01:07:21.073Z,100.00
2023-02-06T01:09:48.114Z,100.00
2023-02-06T01:12:15.130Z,100.00
2023-02-06T01:14:42.413Z,100.00
2023-02-06T01:17:11.872Z,100.00
2023-02-06T01:19:39.432Z,100.00
2023-02-06T01:22:07.410Z,100.00
2023-02-06T01:24:34.479Z,100.00
2023-02-06T01:27:01.530Z,100.00
2023-02-06T01:29:28.608Z,100.00
2023-02-06T01:31:56.341Z,100.00
2023-02-06T01:34:23.384Z,100.00
2023-02-06T01:36:50.380Z,100.00
2023-02-06T01:39:17.396Z,100.00
2023-02-06T01:41:45.470Z,100.00
2023-02-06T01:44:24.094Z,100.00
2023-02-06T01:46:56.121Z,100.00
2023-02-06T01:49:37.880Z,100.00
2023-02-06T01:52:09.317Z,100.00
2023-02-06T01:54:36.514Z,100.00
2023-02-06T01:57:09.031Z,100.00
2023-02-06T01:59:36.476Z,100.00
2023-02-06T02:02:04.279Z,100.00
2023-02-06T02:04:33.095Z,100.00
2023-02-06T02:07:22.784Z,100.00
2023-02-06T02:09:49.852Z,100.00
2023-02-06T02:12:17.014Z,100.00
2023-02-06T02:14:46.385Z,100.00
2023-02-06T02:17:38.174Z,100.00
2023-02-06T02:20:53.508Z,100.00
2023-02-06T02:23:26.606Z,100.00
2023-02-06T02:26:25.043Z,100.00
2023-02-06T02:29:13.353Z,100.00
2023-02-06T02:32:03.214Z,100.00
2023-02-06T02:35:01.582Z,100.00
2023-02-06T02:37:34.553Z,100.00
2023-02-06T02:40:30.969Z,100.00
2023-02-06T02:43:19.700Z,100.00
2023-02-06T02:46:22.356Z,100.00
2023-02-06T02:48:53.077Z,100.00
2023-02-06T02:51:20.320Z,100.00
2023-02-06T02:53:47.469Z,100.00
2023-02-06T02:56:19.329Z,100.00
2023-02-06T02:58:53.369Z,100.00
2023-02-06T03:01:27.610Z,100.00
2023-02-06T03:03:58.199Z,100.00
2023-02-06T03:06:31.394Z,100.00
2023-02-06T03:09:11.034Z,100.00
2023-02-06T03:11:45.296Z,100.00
2023-02-06T03:14:27.892Z,100.00
2023-02-06T03:16:59.514Z,100.00
2023-02-06T03:19:33.382Z,100.00
2023-02-06T03:22:02.479Z,100.00
2023-02-06T03:24:34.824Z,100.00
2023-02-06T03:27:06.737Z,100.00
2023-02-06T03:29:37.396Z,100.00
2023-02-06T03:32:12.484Z,100.00
2023-02-06T03:34:55.865Z,100.00
2023-02-06T03:37:24.441Z,100.00
2023-02-06T03:39:51.568Z,100.00
2023-02-06T03:42:21.620Z,100.00
2023-02-06T03:44:57.377Z,100.00
2023-02-06T03:47:26.245Z,100.00
2023-02-06T03:49:56.730Z,100.00
2023-02-06T03:52:28.487Z,100.00
2023-02-06T03:55:02.343Z,100.00
2023-02-06T03:57:31.860Z,100.00
2023-02-06T03:59:59.025Z,100.00
2023-02-06T04:02:26.663Z,100.00
2023-02-06T04:04:53.800Z,100.00
2023-02-06T04:07:25.400Z,100.00
2023-02-06T04:09:53.344Z,100.00
2023-02-06T04:12:22.050Z,100.00
2023-02-06T04:14:49.184Z,100.00
2023-02-06T04:17:28.163Z,100.00
2023-02-06T04:20:04.852Z,100.00
2023-02-06T04:22:32.102Z,100.00
2023-02-06T04:24:59.208Z,100.00
2023-02-06T04:27:26.352Z,100.00
2023-02-06T04:29:53.469Z,100.00
2023-02-06T04:32:20.472Z,100.00
2023-02-06T04:34:47.607Z,100.00
2023-02-06T04:37:14.645Z,100.00
2023-02-06T04:39:41.895Z,100.00
2023-02-06T04:42:08.961Z,100.00
2023-02-06T04:44:38.353Z,100.00
2023-02-06T04:47:05.746Z,100.00
2023-02-06T04:49:32.995Z,100.00
2023-02-06T04:52:00.049Z,100.00
2023-02-06T04:54:27.122Z,100.00
2023-02-06T04:56:54.209Z,100.00
2023-02-06T04:59:21.399Z,100.00
2023-02-06T05:01:48.591Z,100.00
2023-02-06T05:04:15.933Z,100.00
2023-02-06T05:06:43.019Z,100.00
2023-02-06T05:09:10.325Z,100.00
2023-02-06T05:11:37.379Z,100.00
2023-02-06T05:14:04.404Z,100.00
2023-02-06T05:16:31.417Z,100.00
2023-02-06T05:18:58.451Z,100.00
2023-02-06T05:21:26.201Z,100.00
2023-02-06T05:23:53.416Z,100.00
2023-02-06T05:26:20.711Z,100.00
2023-02-06T05:28:47.952Z,100.00
2023-02-06T05:31:19.565Z,100.00
2023-02-06T05:33:49.421Z,100.00
2023-02-06T05:36:18.273Z,100.00
2023-02-06T05:38:45.542Z,100.00
2023-02-06T05:41:12.724Z,100.00
2023-02-06T05:43:39.835Z,100.00
2023-02-06T05:46:06.967Z,100.00
2023-02-06T05:48:34.900Z,100.00
2023-02-06T05:51:02.144Z,100.00
2023-02-06T05:53:29.289Z,100.00
2023-02-06T05:55:57.238Z,100.00
2023-02-06T05:58:24.673Z,100.00
2023-02-06T06:00:51.761Z,100.00
2023-02-06T06:03:19.099Z,100.00
2023-02-06T06:05:46.454Z,100.00
2023-02-06T06:08:13.513Z,100.00
2023-02-06T06:10:40.745Z,100.00
2023-02-06T06:13:08.398Z,100.00
2023-02-06T06:15:35.736Z,100.00
2023-02-06T06:18:03.507Z,100.00
2023-02-06T06:20:30.584Z,100.00
2023-02-06T06:22:57.591Z,100.00
2023-02-06T06:25:24.625Z,100.00
2023-02-06T06:27:51.648Z,100.00
2023-02-06T06:30:18.781Z,100.00
2023-02-06T06:32:45.786Z,100.00
2023-02-06T06:35:12.826Z,100.00
2023-02-06T06:37:40.009Z,100.00
2023-02-06T06:40:07.412Z,100.00
2023-02-06T06:42:34.490Z,100.00
2023-02-06T06:45:01.633Z,100.00
2023-02-06T06:47:28.706Z,100.00
2023-02-06T06:49:55.730Z,100.00
2023-02-06T06:52:25.661Z,100.00
2023-02-06T06:54:53.625Z,100.00
2023-02-06T06:57:22.064Z,100.00
2023-02-06T06:59:49.465Z,100.00
2023-02-06T07:02:17.150Z,100.00
2023-02-06T07:04:44.186Z,100.00
2023-02-06T07:07:11.203Z,100.00
2023-02-06T07:09:38.275Z,100.00
2023-02-06T07:12:05.795Z,100.00
2023-02-06T07:14:33.033Z,100.00
2023-02-06T07:17:01.573Z,100.00
2023-02-06T07:19:28.572Z,100.00
2023-02-06T07:21:55.561Z,100.00
2023-02-06T07:24:22.637Z,100.00
2023-02-06T07:26:49.785Z,100.00
2023-02-06T07:29:16.898Z,100.00
2023-02-06T07:31:44.075Z,100.00
2023-02-06T07:34:11.202Z,100.00
2023-02-06T07:36:38.244Z,100.00
2023-02-06T07:39:05.289Z,100.00
2023-02-06T07:41:32.374Z,100.00
2023-02-06T07:43:59.763Z,100.00
2023-02-06T07:46:26.844Z,100.00
2023-02-06T07:48:53.901Z,100.00
2023-02-06T07:51:20.940Z,100.00
2023-02-06T07:53:48.436Z,100.00
2023-02-06T07:56:18.372Z,100.00
2023-02-06T07:58:47.243Z,100.00
2023-02-06T08:01:14.314Z,100.00
2023-02-06T08:03:41.476Z,100.00
2023-02-06T08:06:14.718Z,100.00
2023-02-06T08:08:43.148Z,100.00
2023-02-06T08:11:16.155Z,100.00
2023-02-06T08:13:43.780Z,100.00
2023-02-06T08:16:20.166Z,100.00
2023-02-06T08:18:47.539Z,100.00
2023-02-06T08:21:18.070Z,100.00
2023-02-06T08:23:45.472Z,100.00
2023-02-06T08:26:18.578Z,100.00
2023-02-06T08:28:47.873Z,100.00
2023-02-06T08:31:26.718Z,100.00
2023-02-06T08:33:54.861Z,100.00
2023-02-06T08:36:23.592Z,100.00
2023-02-06T08:38:52.376Z,100.00
2023-02-06T08:41:21.618Z,100.00
2023-02-06T08:43:50.455Z,100.00
2023-02-06T08:46:18.861Z,100.00
2023-02-06T08:48:46.254Z,100.00
2023-02-06T08:51:13.740Z,100.00
2023-02-06T08:53:41.073Z,100.00
2023-02-06T08:56:12.311Z,100.00
2023-02-06T08:58:40.449Z,100.00
2023-02-06T09:01:09.145Z,100.00
2023-02-06T09:03:36.672Z,100.00
2023-02-06T09:06:09.722Z,100.00
2023-02-06T09:08:38.724Z,100.00
2023-02-06T09:11:06.722Z,100.00
2023-02-06T09:13:34.004Z,100.00
2023-02-06T09:16:01.612Z,100.00
2023-02-06T09:18:28.634Z,100.00
2023-02-06T09:21:11.967Z,100.00
2023-02-06T09:23:46.822Z,99.63
2023-02-06T09:26:20.575Z,99.44
2023-02-06T09:28:47.723Z,98.05
2023-02-06T09:31:14.891Z,94.98
2023-02-06T09:33:41.966Z,95.26
2023-02-06T09:36:11.891Z,92.68
2023-02-06T09:38:41.251Z,90.24
2023-02-06T09:41:31.575Z,90.21
2023-02-06T09:44:04.922Z,86.90
2023-02-06T09:46:35.177Z,85.63
2023-02-06T09:49:11.433Z,86.23
2023-02-06T09:52:18.087Z,84.96
2023-02-06T09:55:00.315Z,82.51
2023-02-06T09:57:46.366Z,84.09
2023-02-06T10:00:43.190Z,85.26
2023-02-06T10:03:41.492Z,80.73
2023-02-06T10:06:20.014Z,83.19
2023-02-06T10:09:15.562Z,80.38
2023-02-06T10:11:49.273Z,82.51
2023-02-06T10:14:32.327Z,82.51
2023-02-06T10:17:04.742Z,81.54
2023-02-06T10:19:50.404Z,79.08
2023-02-06T10:22:24.292Z,77.50
2023-02-06T10:25:06.033Z,78.42
2023-02-06T10:27:35.296Z,78.73
2023-02-06T10:30:02.421Z,76.31
2023-02-06T10:32:48.628Z,75.56
2023-02-06T10:35:53.106Z,75.54
2023-02-06T10:38:29.375Z,75.61
2023-02-06T10:41:13.469Z,77.41
2023-02-06T10:43:53.334Z,75.70
2023-02-06T10:46:41.414Z,76.21
2023-02-06T10:49:14.193Z,75.90
2023-02-06T10:51:45.370Z,74.99
2023-02-06T10:54:23.236Z,75.55
2023-02-06T10:56:52.500Z,75.85
2023-02-06T10:59:37.625Z,73.97
2023-02-06T11:02:07.834Z,74.26
2023-02-06T11:04:51.234Z,75.09
2023-02-06T11:07:26.133Z,71.14
2023-02-06T11:09:54.137Z,71.89
2023-02-06T11:12:31.261Z,72.88
2023-02-06T11:15:04.785Z,70.56
2023-02-06T11:17:32.147Z,70.58
2023-02-06T11:20:15.190Z,70.08
2023-02-06T11:22:52.357Z,68.33
2023-02-06T11:25:22.878Z,69.92
2023-02-06T11:27:50.289Z,69.71
2023-02-06T11:30:40.144Z,69.27
2023-02-06T11:33:18.779Z,67.67
2023-02-06T11:36:01.374Z,68.55
2023-02-06T11:38:30.516Z,67.15
2023-02-06T11:41:16.845Z,66.63
2023-02-06T11:43:43.766Z,66.10
2023-02-06T11:46:19.475Z,66.03
2023-02-06T11:48:55.523Z,66.44
2023-02-06T11:51:24.240Z,65.54
2023-02-06T11:54:02.730Z,68.45
2023-02-06T11:56:31.575Z,67.27
2023-02-06T11:59:07.305Z,68.18
2023-02-06T12:01:42.907Z,67.76
2023-02-06T12:04:23.904Z,67.69
2023-02-06T12:07:16.753Z,65.85
2023-02-06T12:09:44.003Z,67.33
2023-02-06T12:12:32.576Z,66.50
2023-02-06T12:15:45.610Z,65.70
2023-02-06T12:18:20.112Z,63.24
2023-02-06T12:20:52.435Z,65.05
2023-02-06T12:23:49.701Z,64.53
2023-02-06T12:26:20.765Z,63.21
2023-02-06T12:29:11.802Z,63.75
2023-02-06T12:31:42.901Z,64.95
2023-02-06T12:34:20.107Z,64.05
2023-02-06T12:36:59.994Z,63.98
2023-02-06T12:39:32.626Z,65.09
2023-02-06T12:42:05.795Z,64.66
2023-02-06T12:44:47.719Z,64.75
2023-02-06T12:47:23.605Z,65.02
2023-02-06T12:50:13.533Z,65.03
2023-02-06T12:52:47.634Z,64.33
2023-02-06T12:55:23.601Z,63.92
2023-02-06T12:57:51.666Z,63.81
2023-02-06T13:00:44.557Z,64.05
2023-02-06T13:03:27.320Z,61.79
2023-02-06T13:05:54.367Z,61.92
2023-02-06T13:08:30.783Z,63.28
2023-02-06T13:11:16.901Z,62.43
2023-02-06T13:13:44.315Z,62.87
2023-02-06T13:16:11.521Z,62.97
2023-02-06T13:18:41.661Z,62.22
2023-02-06T13:21:32.228Z,62.87
2023-02-06T13:24:02.350Z,64.11
2023-02-06T13:26:52.403Z,65.15
2023-02-06T13:29:30.365Z,65.06
2023-02-06T13:32:15.581Z,64.40
2023-02-06T13:34:44.071Z,65.60
2023-02-06T13:37:34.885Z,64.66
2023-02-06T13:40:24.545Z,65.16
2023-02-06T13:42:53.970Z,65.57
2023-02-06T13:45:28.925Z,65.71
2023-02-06T13:48:05.245Z,66.37
2023-02-06T13:51:21.791Z,66.69
2023-02-06T13:54:28.721Z,68.25
2023-02-06T13:57:15.891Z,68.12
2023-02-06T13:59:42.978Z,68.80
2023-02-06T14:02:30.042Z,69.46
2023-02-06T14:04:58.397Z,70.28
2023-02-06T14:07:46.973Z,71.19
2023-02-06T14:10:51.234Z,70.34
2023-02-06T14:13:18.203Z,73.07
2023-02-06T14:16:10.293Z,72.14
2023-02-06T14:18:49.291Z,73.06
2023-02-06T14:21:44.027Z,73.21
2023-02-06T14:24:33.082Z,73.85
2023-02-06T14:27:18.731Z,75.07
2023-02-06T14:30:03.815Z,73.82
2023-02-06T14:32:57.121Z,74.14
2023-02-06T14:35:41.689Z,74.29
2023-02-06T14:38:43.698Z,75.05
2023-02-06T14:41:11.006Z,74.98
2023-02-06T14:43:42.950Z,77.54
2023-02-06T14:46:14.788Z,76.27
2023-02-06T14:48:54.931Z,76.51
2023-02-06T14:51:26.363Z,77.39
2023-02-06T14:54:00.227Z,79.35
2023-02-06T14:56:33.237Z,77.55
2023-02-06T14:59:12.311Z,77.50
2023-02-06T15:01:40.405Z,78.99
2023-02-06T15:04:14.067Z,78.50
2023-02-06T15:06:51.209Z,79.02
2023-02-06T15:09:30.428Z,79.95
2023-02-06T15:12:01.175Z,79.09
2023-02-06T15:14:33.873Z,79.86
2023-02-06T15:17:02.570Z,79.53
2023-02-06T15:19:35.562Z,78.27
2023-02-06T15:22:11.363Z,78.59
2023-02-06T15:24:56.744Z,79.32
2023-02-06T15:27:35.682Z,78.47
2023-02-06T15:30:18.404Z,77.80
2023-02-06T15:32:48.297Z,79.03
2023-02-06T15:35:38.585Z,79.32
2023-02-06T15:38:14.614Z,80.04
2023-02-06T15:40:45.765Z,82.42
2023-02-06T15:43:22.473Z,81.17
2023-02-06T15:45:52.216Z,81.64
2023-02-06T15:48:32.117Z,82.68
2023-02-06T15:51:08.279Z,83.06
2023-02-06T15:53:40.515Z,84.09
2023-02-06T15:56:19.272Z,85.98
2023-02-06T15:58:49.359Z,86.06
2023-02-06T16:01:20.840Z,84.99
2023-02-06T16:03:56.306Z,85.56
2023-02-06T16:06:23.437Z,85.56
2023-02-06T16:08:55.610Z,85.25
2023-02-06T16:11:47.883Z,84.96
2023-02-06T16:14:29.186Z,85.89
2023-02-06T16:17:04.165Z,87.21
2023-02-06T16:19:47.571Z,86.10
2023-02-06T16:22:21.751Z,85.50
2023-02-06T16:24:51.830Z,85.52
2023-02-06T16:27:25.791Z,84.85
2023-02-06T16:29:56.082Z,86.15
2023-02-06T16:32:28.640Z,87.75
2023-02-06T16:34:56.184Z,89.00
2023-02-06T16:37:26.134Z,90.68
2023-02-06T16:39:53.934Z,90.50
2023-02-06T16:42:24.714Z,92.00
2023-02-06T16:44:58.244Z,94.08
2023-02-06T16:47:25.546Z,94.59
2023-02-06T16:49:52.803Z,95.27
2023-02-06T16:52:29.192Z,96.75
2023-02-06T16:55:00.704Z,95.86
2023-02-06T16:57:35.214Z,97.00
2023-02-06T17:00:05.029Z,97.26
2023-02-06T17:02:32.072Z,97.23
2023-02-06T17:04:59.205Z,96.66
2023-02-06T17:07:30.615Z,97.41
2023-02-06T17:09:58.663Z,98.14
2023-02-06T17:12:25.762Z,99.27
2023-02-06T17:14:52.884Z,98.81
2023-02-06T17:17:22.302Z,99.32
2023-02-06T17:19:51.786Z,98.70
2023-02-06T17:22:19.098Z,98.30
2023-02-06T17:24:46.475Z,98.09
2023-02-06T17:27:20.861Z,99.27
2023-02-06T17:29:48.826Z,98.97
2023-02-06T17:32:17.984Z,99.74
2023-02-06T17:34:45.088Z,98.32
2023-02-06T17:37:20.386Z,100.00
2023-02-06T17:39:51.765Z,100.00
2023-02-06T17:42:21.671Z,100.00
2023-02-06T17:44:48.814Z,100.00
2023-02-06T17:47:15.850Z,100.00
2023-02-06T17:49:42.888Z,100.00
2023-02-06T17:52:09.879Z,100.00
2023-02-06T17:54:37.001Z,100.00
2023-02-06T17:57:04.083Z,100.00
2023-02-06T17:59:31.098Z,100.00
2023-02-06T18:01:59.349Z,100.00
2023-02-06T18:04:27.158Z,100.00
2023-02-06T18:06:54.290Z,100.00
2023-02-06T18:09:21.361Z,100.00
2023-02-06T18:11:48.403Z,100.00
2023-02-06T18:14:15.598Z,100.00
2023-02-06T18:16:42.876Z,100.00
2023-02-06T18:19:10.565Z,100.00
2023-02-06T18:21:37.596Z,100.00
2023-02-06T18:24:05.740Z,100.00
2023-02-06T18:26:33.212Z,100.00
2023-02-06T18:29:04.400Z,100.00
2023-02-06T18:31:33.738Z,100.00
2023-02-06T18:34:03.368Z,100.00
2023-02-06T18:36:30.423Z,100.00
2023-02-06T18:38:57.586Z,100.00
2023-02-06T18:41:43.390Z,100.00
2023-02-06T18:44:12.053Z,100.00
2023-02-06T18:46:40.126Z,100.00
2023-02-06T18:49:07.460Z,100.00
2023-02-06T18:51:34.607Z,100.00
2023-02-06T18:54:01.934Z,100.00
2023-02-06T18:56:29.094Z,100.00
2023-02-06T18:58:56.290Z,100.00
2023-02-06T19:01:24.899Z,100.00
2023-02-06T19:03:53.347Z,100.00
2023-02-06T19:06:23.919Z,100.00
2023-02-06T19:08:50.978Z,100.00
2023-02-06T19:11:18.114Z,100.00
2023-02-06T19:13:45.290Z,100.00
2023-02-06T19:16:15.632Z,100.00
2023-02-06T19:18:45.873Z,100.00
2023-02-06T19:21:16.180Z,100.00
2023-02-06T19:23:44.952Z,100.00
2023-02-06T19:26:14.966Z,100.00
2023-02-06T19:28:43.219Z,100.00
2023-02-06T19:31:12.930Z,100.00
2023-02-06T19:33:41.283Z,100.00
2023-02-06T19:36:10.460Z,100.00
2023-02-06T19:38:37.894Z,100.00
2023-02-06T19:41:12.489Z,100.00
2023-02-06T19:43:40.107Z,100.00
2023-02-06T19:46:11.720Z,100.00
2023-02-06T19:48:42.276Z,100.00
2023-02-06T19:51:15.530Z,100.00
2023-02-06T19:53:46.288Z,100.00
2023-02-06T19:56:17.853Z,100.00
2023-02-06T19:58:45.017Z,100.00
2023-02-06T20:01:15.215Z,100.00
2023-02-06T20:03:43.272Z,100.00
2023-02-06T20:06:12.908Z,100.00
2023-02-06T20:08:44.775Z,100.00
2023-02-06T20:11:14.950Z,100.00
2023-02-06T20:13:42.782Z,100.00
2023-02-06T20:16:21.224Z,100.00
2023-02-06T20:18:49.345Z,100.00
2023-02-06T20:21:28.052Z,100.00
2023-02-06T20:23:58.161Z,100.00
2023-02-06T20:26:27.678Z,100.00
2023-02-06T20:28:55.710Z,100.00
2023-02-06T20:31:23.280Z,100.00
2023-02-06T20:33:50.571Z,100.00
2023-02-06T20:36:23.017Z,100.00
2023-02-06T20:38:50.740Z,100.00
2023-02-06T20:41:19.077Z,100.00
2023-02-06T20:43:48.085Z,100.00
2023-02-06T20:46:18.256Z,100.00
2023-02-06T20:48:47.457Z,100.00
2023-02-06T20:51:14.726Z,100.00
2023-02-06T20:53:41.816Z,100.00
2023-02-06T20:56:12.063Z,98.04
2023-02-06T20:58:39.308Z,98.60
2023-02-06T21:01:24.681Z,97.47
2023-02-06T21:03:55.703Z,97.30
2023-02-06T21:06:22.983Z,97.39
2023-02-06T21:08:52.662Z,95.93
2023-02-06T21:11:19.885Z,96.32
2023-02-06T21:13:46.891Z,97.04
2023-02-06T21:16:13.963Z,96.55
2023-02-06T21:18:42.484Z,96.84
2023-02-06T21:21:13.728Z,97.31
2023-02-06T21:23:42.760Z,97.26
2023-02-06T21:26:12.241Z,98.48
2023-02-06T21:28:40.823Z,97.82
2023-02-06T21:31:14.390Z,98.71
2023-02-06T21:33:41.450Z,98.12
2023-02-06T21:36:09.012Z,97.39
2023-02-06T21:38:36.577Z,97.58
2023-02-06T21:41:05.955Z,97.21
2023-02-06T21:43:33.320Z,98.25
2023-02-06T21:46:00.425Z,97.59
2023-02-06T21:48:27.822Z,98.15
2023-02-06T21:50:54.868Z,98.54
2023-02-06T21:53:21.863Z,97.52
2023-02-06T21:55:48.874Z,97.14
2023-02-06T21:58:16.344Z,96.98
2023-02-06T22:00:45.427Z,98.83
2023-02-06T22:03:13.171Z,100.00
2023-02-06T22:05:40.358Z,100.00
2023-02-06T22:08:07.534Z,100.00
2023-02-06T22:10:36.484Z,100.00
2023-02-06T22:13:05.348Z,100.00
2023-02-06T22:15:33.301Z,99.59
2023-02-06T22:18:00.594Z,98.96
2023-02-06T22:20:28.080Z,100.00
2023-02-06T22:22:55.206Z,99.22
2023-02-06T22:25:22.549Z,99.93
2023-02-06T22:27:49.798Z,98.95
2023-02-06T22:30:16.994Z,99.28
2023-02-06T22:32:44.089Z,96.74
2023-02-06T22:35:11.249Z,96.49
2023-02-06T22:37:38.417Z,97.76
2023-02-06T22:40:05.822Z,99.34
2023-02-06T22:42:34.708Z,98.40
2023-02-06T22:45:02.066Z,96.17
2023-02-06T22:47:29.069Z,95.46
2023-02-06T22:49:56.092Z,94.49
2023-02-06T22:52:41.916Z,93.49
2023-02-06T22:55:09.440Z,94.01
2023-02-06T22:57:37.213Z,91.92
2023-02-06T23:00:09.241Z,91.58
2023-02-06T23:02:38.249Z,90.64
2023-02-06T23:05:05.896Z,89.86
2023-02-06T23:07:32.982Z,90.10
2023-02-06T23:09:59.991Z,90.50
2023-02-06T23:12:27.037Z,89.92
2023-02-06T23:14:54.166Z,89.21
2023-02-06T23:17:21.223Z,89.82
2023-02-06T23:19:48.541Z,89.12
2023-02-06T23:22:15.706Z,89.81
2023-02-06T23:24:42.714Z,89.57
2023-02-06T23:27:09.878Z,89.25
2023-02-06T23:29:36.962Z,89.35
2023-02-06T23:32:04.696Z,91.29
2023-02-06T23:34:31.765Z,90.88
2023-02-06T23:36:58.832Z,91.04
2023-02-06T23:39:25.960Z,90.41
2023-02-06T23:41:53.077Z,90.61
2023-02-06T23:44:20.166Z,92.36
2023-02-06T23:46:47.805Z,92.52
2023-02-06T23:49:14.884Z,93.30
2023-02-06T23:51:41.932Z,92.79
2023-02-06T23:54:09.335Z,91.37
2023-02-06T23:56:37.235Z,90.39
2023-02-06T23:59:05.535Z,90.03
